sensor_id;sensor_type;location;lat;lon;timestamp;temperature;humidity
546;DHT22;259;53.304;9.816;2023-11-19T00:00:46;14.20;90.60
546;DHT22;259;53.304;9.816;2023-11-19T00:03:12;14.20;90.70
546;DHT22;259;53.304;9.816;2023-11-19T00:05:38;14.20;90.70
546;DHT22;259;53.304;9.816;2023-11-19T00:08:04;14.20;90.70
546;DHT22;259;53.304;9.816;2023-11-19T00:10:31;14.10;90.70
546;DHT22;259;53.304;9.816;2023-11-19T00:12:57;14.10;90.80
546;DHT22;259;53.304;9.816;2023-11-19T00:15:23;14.10;90.70
546;DHT22;259;53.304;9.816;2023-11-19T00:17:49;14.10;90.80
546;DHT22;259;53.304;9.816;2023-11-19T00:20:17;14.00;90.90
546;DHT22;259;53.304;9.816;2023-11-19T00:22:43;14.10;91.00
546;DHT22;259;53.304;9.816;2023-11-19T00:25:11;14.00;90.90
546;DHT22;259;53.304;9.816;2023-11-19T00:27:37;14.00;90.90
546;DHT22;259;53.304;9.816;2023-11-19T00:30:06;14.00;91.00
546;DHT22;259;53.304;9.816;2023-11-19T00:32:33;14.00;91.10
546;DHT22;259;53.304;9.816;2023-11-19T00:34:59;14.00;91.00
546;DHT22;259;53.304;9.816;2023-11-19T00:37:25;14.00;91.20
546;DHT22;259;53.304;9.816;2023-11-19T00:39:50;13.90;91.20
546;DHT22;259;53.304;9.816;2023-11-19T00:42:17;14.00;91.30
546;DHT22;259;53.304;9.816;2023-11-19T00:44:43;13.90;91.30
546;DHT22;259;53.304;9.816;2023-11-19T00:47:08;13.90;91.20
546;DHT22;259;53.304;9.816;2023-11-19T00:49:34;13.90;91.30
546;DHT22;259;53.304;9.816;2023-11-19T00:52:00;13.90;91.30
546;DHT22;259;53.304;9.816;2023-11-19T00:54:27;13.90;91.20
546;DHT22;259;53.304;9.816;2023-11-19T00:56:53;13.90;91.20
546;DHT22;259;53.304;9.816;2023-11-19T00:59:19;13.90;91.30
546;DHT22;259;53.304;9.816;2023-11-19T01:01:45;13.80;91.20
546;DHT22;259;53.304;9.816;2023-11-19T01:04:13;13.80;91.30
546;DHT22;259;53.304;9.816;2023-11-19T01:06:40;13.80;91.40
546;DHT22;259;53.304;9.816;2023-11-19T01:09:08;13.80;91.40
546;DHT22;259;53.304;9.816;2023-11-19T01:11:34;13.80;91.30
546;DHT22;259;53.304;9.816;2023-11-19T01:14:00;13.80;91.50
546;DHT22;259;53.304;9.816;2023-11-19T01:16:26;13.80;91.50
546;DHT22;259;53.304;9.816;2023-11-19T01:18:53;13.70;91.40
546;DHT22;259;53.304;9.816;2023-11-19T01:21:18;13.70;91.60
546;DHT22;259;53.304;9.816;2023-11-19T01:23:44;13.70;91.40
546;DHT22;259;53.304;9.816;2023-11-19T01:26:11;13.70;91.50
546;DHT22;259;53.304;9.816;2023-11-19T01:28:38;13.70;91.90
546;DHT22;259;53.304;9.816;2023-11-19T01:31:14;13.70;91.50
546;DHT22;259;53.304;9.816;2023-11-19T01:33:40;13.70;91.60
546;DHT22;259;53.304;9.816;2023-11-19T01:36:07;13.70;91.60
546;DHT22;259;53.304;9.816;2023-11-19T01:38:36;13.60;91.60
546;DHT22;259;53.304;9.816;2023-11-19T01:41:02;13.60;91.50
546;DHT22;259;53.304;9.816;2023-11-19T01:43:39;13.60;91.70
546;DHT22;259;53.304;9.816;2023-11-19T01:46:07;13.60;91.70
546;DHT22;259;53.304;9.816;2023-11-19T01:48:38;13.60;91.70
546;DHT22;259;53.304;9.816;2023-11-19T01:51:07;13.50;91.70
546;DHT22;259;53.304;9.816;2023-11-19T01:53:35;13.60;91.80
546;DHT22;259;53.304;9.816;2023-11-19T01:56:03;13.50;91.90
546;DHT22;259;53.304;9.816;2023-11-19T01:58:30;13.50;91.80
546;DHT22;259;53.304;9.816;2023-11-19T02:00:56;13.50;91.90
546;DHT22;259;53.304;9.816;2023-11-19T02:03:23;13.50;91.80
546;DHT22;259;53.304;9.816;2023-11-19T02:05:51;13.50;91.90
546;DHT22;259;53.304;9.816;2023-11-19T02:08:18;13.50;91.90
546;DHT22;259;53.304;9.816;2023-11-19T02:10:44;13.50;91.90
546;DHT22;259;53.304;9.816;2023-11-19T02:13:10;13.50;92.20
546;DHT22;259;53.304;9.816;2023-11-19T02:15:39;13.50;91.90
546;DHT22;259;53.304;9.816;2023-11-19T02:20:59;13.40;91.90
546;DHT22;259;53.304;9.816;2023-11-19T02:23:29;13.40;92.00
546;DHT22;259;53.304;9.816;2023-11-19T02:28:31;13.40;92.10
546;DHT22;259;53.304;9.816;2023-11-19T02:30:58;13.40;92.10
546;DHT22;259;53.304;9.816;2023-11-19T02:33:24;13.40;92.10
546;DHT22;259;53.304;9.816;2023-11-19T02:35:50;13.40;92.10
546;DHT22;259;53.304;9.816;2023-11-19T02:38:16;13.30;92.10
546;DHT22;259;53.304;9.816;2023-11-19T02:40:42;13.30;92.10
546;DHT22;259;53.304;9.816;2023-11-19T02:43:08;13.30;92.10
546;DHT22;259;53.304;9.816;2023-11-19T02:45:34;13.30;92.20
546;DHT22;259;53.304;9.816;2023-11-19T02:48:00;13.30;92.20
546;DHT22;259;53.304;9.816;2023-11-19T02:50:31;13.30;92.60
546;DHT22;259;53.304;9.816;2023-11-19T02:52:57;13.30;92.30
546;DHT22;259;53.304;9.816;2023-11-19T02:55:23;13.30;92.30
546;DHT22;259;53.304;9.816;2023-11-19T02:57:50;13.20;92.30
546;DHT22;259;53.304;9.816;2023-11-19T03:00:19;13.20;92.30
546;DHT22;259;53.304;9.816;2023-11-19T03:02:57;13.20;92.30
546;DHT22;259;53.304;9.816;2023-11-19T03:05:35;13.20;92.40
546;DHT22;259;53.304;9.816;2023-11-19T03:08:01;13.20;92.30
546;DHT22;259;53.304;9.816;2023-11-19T03:10:26;13.20;92.50
546;DHT22;259;53.304;9.816;2023-11-19T03:12:52;13.20;92.50
546;DHT22;259;53.304;9.816;2023-11-19T03:15:18;13.20;92.60
546;DHT22;259;53.304;9.816;2023-11-19T03:17:44;13.20;92.50
546;DHT22;259;53.304;9.816;2023-11-19T03:20:11;13.20;92.40
546;DHT22;259;53.304;9.816;2023-11-19T03:22:40;13.10;92.50
546;DHT22;259;53.304;9.816;2023-11-19T03:25:07;13.10;92.50
546;DHT22;259;53.304;9.816;2023-11-19T03:27:37;13.10;92.50
546;DHT22;259;53.304;9.816;2023-11-19T03:30:08;13.10;92.50
546;DHT22;259;53.304;9.816;2023-11-19T03:32:37;13.10;92.50
546;DHT22;259;53.304;9.816;2023-11-19T03:35:04;13.10;92.60
546;DHT22;259;53.304;9.816;2023-11-19T03:37:32;13.10;92.60
546;DHT22;259;53.304;9.816;2023-11-19T03:39:59;13.10;92.70
546;DHT22;259;53.304;9.816;2023-11-19T03:42:28;13.10;92.60
546;DHT22;259;53.304;9.816;2023-11-19T03:44:57;13.10;92.60
546;DHT22;259;53.304;9.816;2023-11-19T03:47:23;13.00;92.50
546;DHT22;259;53.304;9.816;2023-11-19T03:49:49;13.00;92.70
546;DHT22;259;53.304;9.816;2023-11-19T03:52:16;13.00;92.80
546;DHT22;259;53.304;9.816;2023-11-19T03:54:43;13.00;92.90
546;DHT22;259;53.304;9.816;2023-11-19T03:57:09;13.00;92.80
546;DHT22;259;53.304;9.816;2023-11-19T03:59:38;13.00;93.00
546;DHT22;259;53.304;9.816;2023-11-19T04:02:04;13.00;93.10
546;DHT22;259;53.304;9.816;2023-11-19T04:04:30;13.00;93.20
546;DHT22;259;53.304;9.816;2023-11-19T04:06:56;13.00;93.10
546;DHT22;259;53.304;9.816;2023-11-19T04:09:22;13.00;93.10
546;DHT22;259;53.304;9.816;2023-11-19T04:11:48;13.00;93.00
546;DHT22;259;53.304;9.816;2023-11-19T04:14:14;13.00;93.10
546;DHT22;259;53.304;9.816;2023-11-19T04:16:40;13.00;93.20
546;DHT22;259;53.304;9.816;2023-11-19T04:19:06;13.00;93.00
546;DHT22;259;53.304;9.816;2023-11-19T04:21:32;12.90;93.20
546;DHT22;259;53.304;9.816;2023-11-19T04:23:58;12.90;93.10
546;DHT22;259;53.304;9.816;2023-11-19T04:26:24;12.90;93.10
546;DHT22;259;53.304;9.816;2023-11-19T04:28:50;12.90;93.10
546;DHT22;259;53.304;9.816;2023-11-19T04:31:16;12.90;93.10
546;DHT22;259;53.304;9.816;2023-11-19T04:33:42;12.90;93.10
546;DHT22;259;53.304;9.816;2023-11-19T04:36:11;12.90;93.10
546;DHT22;259;53.304;9.816;2023-11-19T04:38:39;12.90;93.10
546;DHT22;259;53.304;9.816;2023-11-19T04:41:05;12.90;93.10
546;DHT22;259;53.304;9.816;2023-11-19T04:43:32;12.90;93.20
546;DHT22;259;53.304;9.816;2023-11-19T04:45:57;12.90;93.10
546;DHT22;259;53.304;9.816;2023-11-19T04:48:24;12.90;93.10
546;DHT22;259;53.304;9.816;2023-11-19T04:50:50;12.90;93.10
546;DHT22;259;53.304;9.816;2023-11-19T04:53:19;12.90;93.10
546;DHT22;259;53.304;9.816;2023-11-19T04:55:45;12.90;93.20
546;DHT22;259;53.304;9.816;2023-11-19T04:58:10;12.80;93.10
546;DHT22;259;53.304;9.816;2023-11-19T05:00:36;12.80;93.20
546;DHT22;259;53.304;9.816;2023-11-19T05:03:02;12.80;93.20
546;DHT22;259;53.304;9.816;2023-11-19T05:05:28;12.80;93.20
546;DHT22;259;53.304;9.816;2023-11-19T05:07:54;12.80;93.20
546;DHT22;259;53.304;9.816;2023-11-19T05:10:20;12.80;93.20
546;DHT22;259;53.304;9.816;2023-11-19T05:12:46;12.80;93.40
546;DHT22;259;53.304;9.816;2023-11-19T05:15:12;12.80;93.50
546;DHT22;259;53.304;9.816;2023-11-19T05:17:38;12.80;93.40
546;DHT22;259;53.304;9.816;2023-11-19T05:20:05;12.80;93.40
546;DHT22;259;53.304;9.816;2023-11-19T05:22:41;12.80;93.40
546;DHT22;259;53.304;9.816;2023-11-19T05:25:07;12.80;93.30
546;DHT22;259;53.304;9.816;2023-11-19T05:27:34;12.80;93.50
546;DHT22;259;53.304;9.816;2023-11-19T05:30:02;12.80;93.40
546;DHT22;259;53.304;9.816;2023-11-19T05:32:28;12.70;93.40
546;DHT22;259;53.304;9.816;2023-11-19T05:34:54;12.70;93.70
546;DHT22;259;53.304;9.816;2023-11-19T05:37:20;12.80;93.50
546;DHT22;259;53.304;9.816;2023-11-19T05:39:46;12.70;93.40
546;DHT22;259;53.304;9.816;2023-11-19T05:42:11;12.70;93.40
546;DHT22;259;53.304;9.816;2023-11-19T05:44:37;12.70;93.80
546;DHT22;259;53.304;9.816;2023-11-19T05:47:03;12.70;93.50
546;DHT22;259;53.304;9.816;2023-11-19T05:49:29;12.70;93.60
546;DHT22;259;53.304;9.816;2023-11-19T05:51:55;12.70;93.60
546;DHT22;259;53.304;9.816;2023-11-19T05:54:21;12.70;93.60
546;DHT22;259;53.304;9.816;2023-11-19T05:56:48;12.70;93.60
546;DHT22;259;53.304;9.816;2023-11-19T05:59:14;12.70;93.60
546;DHT22;259;53.304;9.816;2023-11-19T06:01:43;12.70;93.70
546;DHT22;259;53.304;9.816;2023-11-19T06:04:09;12.70;93.80
546;DHT22;259;53.304;9.816;2023-11-19T06:06:36;12.70;93.70
546;DHT22;259;53.304;9.816;2023-11-19T06:09:02;12.70;93.70
546;DHT22;259;53.304;9.816;2023-11-19T06:11:28;12.70;93.70
546;DHT22;259;53.304;9.816;2023-11-19T06:13:54;12.70;93.70
546;DHT22;259;53.304;9.816;2023-11-19T06:16:20;12.70;93.70
546;DHT22;259;53.304;9.816;2023-11-19T06:18:45;12.70;93.60
546;DHT22;259;53.304;9.816;2023-11-19T06:21:12;12.70;93.60
546;DHT22;259;53.304;9.816;2023-11-19T06:23:38;12.60;93.60
546;DHT22;259;53.304;9.816;2023-11-19T06:26:04;12.70;93.70
546;DHT22;259;53.304;9.816;2023-11-19T06:28:31;12.60;93.70
546;DHT22;259;53.304;9.816;2023-11-19T06:30:57;12.60;93.70
546;DHT22;259;53.304;9.816;2023-11-19T06:33:24;12.60;93.70
546;DHT22;259;53.304;9.816;2023-11-19T06:35:50;12.70;93.80
546;DHT22;259;53.304;9.816;2023-11-19T06:38:15;12.60;93.80
546;DHT22;259;53.304;9.816;2023-11-19T06:40:41;12.70;93.80
546;DHT22;259;53.304;9.816;2023-11-19T06:43:07;12.60;93.80
546;DHT22;259;53.304;9.816;2023-11-19T06:45:34;12.60;93.80
546;DHT22;259;53.304;9.816;2023-11-19T06:48:02;12.70;93.80
546;DHT22;259;53.304;9.816;2023-11-19T06:50:30;12.60;93.90
546;DHT22;259;53.304;9.816;2023-11-19T06:52:59;12.60;93.80
546;DHT22;259;53.304;9.816;2023-11-19T06:55:25;12.60;94.00
546;DHT22;259;53.304;9.816;2023-11-19T06:57:51;12.60;93.90
546;DHT22;259;53.304;9.816;2023-11-19T07:00:17;12.60;94.00
546;DHT22;259;53.304;9.816;2023-11-19T07:02:43;12.60;93.90
546;DHT22;259;53.304;9.816;2023-11-19T07:05:09;12.60;93.90
546;DHT22;259;53.304;9.816;2023-11-19T07:07:37;12.60;93.90
546;DHT22;259;53.304;9.816;2023-11-19T07:10:03;12.60;93.90
546;DHT22;259;53.304;9.816;2023-11-19T07:12:31;12.60;93.90
546;DHT22;259;53.304;9.816;2023-11-19T07:14:56;12.60;93.90
546;DHT22;259;53.304;9.816;2023-11-19T07:17:22;12.60;93.90
546;DHT22;259;53.304;9.816;2023-11-19T07:19:49;12.60;93.90
546;DHT22;259;53.304;9.816;2023-11-19T07:22:16;12.60;94.00
546;DHT22;259;53.304;9.816;2023-11-19T07:24:42;12.60;94.00
546;DHT22;259;53.304;9.816;2023-11-19T07:27:08;12.60;94.00
546;DHT22;259;53.304;9.816;2023-11-19T07:29:35;12.60;94.10
546;DHT22;259;53.304;9.816;2023-11-19T07:32:01;12.60;94.10
546;DHT22;259;53.304;9.816;2023-11-19T07:34:30;12.60;94.10
546;DHT22;259;53.304;9.816;2023-11-19T07:36:56;12.60;94.10
546;DHT22;259;53.304;9.816;2023-11-19T07:39:24;12.60;94.20
546;DHT22;259;53.304;9.816;2023-11-19T07:41:50;12.60;94.30
546;DHT22;259;53.304;9.816;2023-11-19T07:44:16;12.60;94.40
546;DHT22;259;53.304;9.816;2023-11-19T07:46:41;12.60;94.20
546;DHT22;259;53.304;9.816;2023-11-19T07:49:07;12.60;94.20
546;DHT22;259;53.304;9.816;2023-11-19T07:51:33;12.60;94.20
546;DHT22;259;53.304;9.816;2023-11-19T07:53:59;12.60;94.20
546;DHT22;259;53.304;9.816;2023-11-19T07:56:24;12.60;94.20
546;DHT22;259;53.304;9.816;2023-11-19T07:58:50;12.60;94.40
546;DHT22;259;53.304;9.816;2023-11-19T08:01:16;12.60;94.50
546;DHT22;259;53.304;9.816;2023-11-19T08:03:42;12.60;94.20
546;DHT22;259;53.304;9.816;2023-11-19T08:06:08;12.60;94.20
546;DHT22;259;53.304;9.816;2023-11-19T08:08:33;12.60;94.20
546;DHT22;259;53.304;9.816;2023-11-19T08:11:00;12.60;94.40
546;DHT22;259;53.304;9.816;2023-11-19T08:13:26;12.60;94.30
546;DHT22;259;53.304;9.816;2023-11-19T08:15:52;12.60;94.20
546;DHT22;259;53.304;9.816;2023-11-19T08:18:18;12.60;94.30
546;DHT22;259;53.304;9.816;2023-11-19T08:20:44;12.20;94.10
546;DHT22;259;53.304;9.816;2023-11-19T08:23:10;12.60;94.20
546;DHT22;259;53.304;9.816;2023-11-19T08:25:36;12.60;94.20
546;DHT22;259;53.304;9.816;2023-11-19T08:28:02;12.60;94.20
546;DHT22;259;53.304;9.816;2023-11-19T08:30:29;12.60;94.50
546;DHT22;259;53.304;9.816;2023-11-19T08:32:55;12.60;94.40
546;DHT22;259;53.304;9.816;2023-11-19T08:35:21;12.60;94.40
546;DHT22;259;53.304;9.816;2023-11-19T08:37:47;12.60;94.30
546;DHT22;259;53.304;9.816;2023-11-19T08:40:13;12.60;94.30
546;DHT22;259;53.304;9.816;2023-11-19T08:42:39;12.60;94.30
546;DHT22;259;53.304;9.816;2023-11-19T08:45:06;12.60;94.40
546;DHT22;259;53.304;9.816;2023-11-19T08:47:32;12.60;94.30
546;DHT22;259;53.304;9.816;2023-11-19T08:49:57;12.60;94.40
546;DHT22;259;53.304;9.816;2023-11-19T08:52:23;12.60;94.40
546;DHT22;259;53.304;9.816;2023-11-19T08:54:49;12.60;94.50
546;DHT22;259;53.304;9.816;2023-11-19T08:57:15;12.60;94.60
546;DHT22;259;53.304;9.816;2023-11-19T08:59:40;12.60;94.60
546;DHT22;259;53.304;9.816;2023-11-19T09:02:06;12.60;94.70
546;DHT22;259;53.304;9.816;2023-11-19T09:04:33;12.60;94.70
546;DHT22;259;53.304;9.816;2023-11-19T09:06:59;12.60;94.60
546;DHT22;259;53.304;9.816;2023-11-19T09:09:24;12.60;94.70
546;DHT22;259;53.304;9.816;2023-11-19T09:11:50;12.60;94.60
546;DHT22;259;53.304;9.816;2023-11-19T09:14:16;12.60;94.60
546;DHT22;259;53.304;9.816;2023-11-19T09:16:43;12.60;94.80
546;DHT22;259;53.304;9.816;2023-11-19T09:19:09;12.60;94.70
546;DHT22;259;53.304;9.816;2023-11-19T09:21:34;12.60;94.60
546;DHT22;259;53.304;9.816;2023-11-19T09:24:04;12.60;94.90
546;DHT22;259;53.304;9.816;2023-11-19T09:26:30;12.60;94.90
546;DHT22;259;53.304;9.816;2023-11-19T09:28:56;12.60;94.90
546;DHT22;259;53.304;9.816;2023-11-19T09:31:22;12.60;94.70
546;DHT22;259;53.304;9.816;2023-11-19T09:33:47;12.60;94.70
546;DHT22;259;53.304;9.816;2023-11-19T09:36:13;12.60;94.70
546;DHT22;259;53.304;9.816;2023-11-19T09:38:45;12.60;94.80
546;DHT22;259;53.304;9.816;2023-11-19T09:41:11;12.60;94.80
546;DHT22;259;53.304;9.816;2023-11-19T09:43:42;12.60;94.90
546;DHT22;259;53.304;9.816;2023-11-19T09:46:13;12.60;94.90
546;DHT22;259;53.304;9.816;2023-11-19T09:48:39;12.60;94.90
546;DHT22;259;53.304;9.816;2023-11-19T09:51:07;12.60;94.80
546;DHT22;259;53.304;9.816;2023-11-19T09:53:34;12.60;94.90
546;DHT22;259;53.304;9.816;2023-11-19T09:56:02;12.60;94.80
546;DHT22;259;53.304;9.816;2023-11-19T09:58:29;12.50;94.80
546;DHT22;259;53.304;9.816;2023-11-19T10:00:56;12.70;94.90
546;DHT22;259;53.304;9.816;2023-11-19T10:03:33;12.70;94.90
546;DHT22;259;53.304;9.816;2023-11-19T10:06:09;12.70;95.00
546;DHT22;259;53.304;9.816;2023-11-19T10:08:40;12.70;94.90
546;DHT22;259;53.304;9.816;2023-11-19T10:11:07;12.60;94.90
546;DHT22;259;53.304;9.816;2023-11-19T10:13:36;12.60;95.20
546;DHT22;259;53.304;9.816;2023-11-19T10:16:12;12.60;95.50
546;DHT22;259;53.304;9.816;2023-11-19T10:18:42;12.60;95.60
546;DHT22;259;53.304;9.816;2023-11-19T10:21:18;12.60;95.50
546;DHT22;259;53.304;9.816;2023-11-19T10:23:55;12.60;95.50
546;DHT22;259;53.304;9.816;2023-11-19T10:26:26;12.70;95.50
546;DHT22;259;53.304;9.816;2023-11-19T10:28:52;12.70;95.60
546;DHT22;259;53.304;9.816;2023-11-19T10:31:19;12.60;95.50
546;DHT22;259;53.304;9.816;2023-11-19T10:33:50;12.60;95.50
546;DHT22;259;53.304;9.816;2023-11-19T10:36:17;12.70;95.50
546;DHT22;259;53.304;9.816;2023-11-19T10:38:54;12.70;95.60
546;DHT22;259;53.304;9.816;2023-11-19T10:41:28;12.70;95.70
546;DHT22;259;53.304;9.816;2023-11-19T10:43:54;12.70;95.80
546;DHT22;259;53.304;9.816;2023-11-19T10:46:20;12.70;95.80
546;DHT22;259;53.304;9.816;2023-11-19T10:48:48;12.60;95.80
546;DHT22;259;53.304;9.816;2023-11-19T10:51:19;12.60;95.70
546;DHT22;259;53.304;9.816;2023-11-19T10:53:49;12.60;95.90
546;DHT22;259;53.304;9.816;2023-11-19T10:56:20;12.70;95.90
546;DHT22;259;53.304;9.816;2023-11-19T10:58:51;12.70;95.90
546;DHT22;259;53.304;9.816;2023-11-19T11:01:23;12.70;95.80
546;DHT22;259;53.304;9.816;2023-11-19T11:03:51;12.70;95.80
546;DHT22;259;53.304;9.816;2023-11-19T11:06:19;12.70;95.70
546;DHT22;259;53.304;9.816;2023-11-19T11:08:48;12.70;95.80
546;DHT22;259;53.304;9.816;2023-11-19T11:11:16;12.70;95.90
546;DHT22;259;53.304;9.816;2023-11-19T11:13:50;12.60;95.90
546;DHT22;259;53.304;9.816;2023-11-19T11:16:19;12.70;96.00
546;DHT22;259;53.304;9.816;2023-11-19T11:18:46;12.70;95.80
546;DHT22;259;53.304;9.816;2023-11-19T11:21:17;12.70;95.80
546;DHT22;259;53.304;9.816;2023-11-19T11:38:48;12.70;96.10
546;DHT22;259;53.304;9.816;2023-11-19T11:41:20;12.70;96.10
546;DHT22;259;53.304;9.816;2023-11-19T11:43:51;12.70;96.10
546;DHT22;259;53.304;9.816;2023-11-19T11:49:08;12.70;96.10
546;DHT22;259;53.304;9.816;2023-11-19T11:57:18;12.70;96.10
546;DHT22;259;53.304;9.816;2023-11-19T12:02:11;12.70;96.00
546;DHT22;259;53.304;9.816;2023-11-19T12:04:40;12.70;96.20
546;DHT22;259;53.304;9.816;2023-11-19T12:07:08;12.70;96.00
546;DHT22;259;53.304;9.816;2023-11-19T12:09:40;12.70;96.10
546;DHT22;259;53.304;9.816;2023-11-19T12:12:11;11.90;95.60
546;DHT22;259;53.304;9.816;2023-11-19T12:20:00;12.70;96.10
546;DHT22;259;53.304;9.816;2023-11-19T12:22:26;12.70;96.10
546;DHT22;259;53.304;9.816;2023-11-19T12:24:55;12.70;96.10
546;DHT22;259;53.304;9.816;2023-11-19T12:27:21;12.70;96.10
546;DHT22;259;53.304;9.816;2023-11-19T12:29:48;12.80;96.20
546;DHT22;259;53.304;9.816;2023-11-19T12:32:14;12.70;96.10
546;DHT22;259;53.304;9.816;2023-11-19T12:34:40;12.70;96.10
546;DHT22;259;53.304;9.816;2023-11-19T12:37:06;12.70;96.10
546;DHT22;259;53.304;9.816;2023-11-19T12:39:32;12.70;96.10
546;DHT22;259;53.304;9.816;2023-11-19T12:41:58;12.70;96.20
546;DHT22;259;53.304;9.816;2023-11-19T12:44:26;12.70;96.20
546;DHT22;259;53.304;9.816;2023-11-19T12:47:05;12.70;96.20
546;DHT22;259;53.304;9.816;2023-11-19T12:49:33;12.70;96.20
546;DHT22;259;53.304;9.816;2023-11-19T12:51:59;12.70;96.30
546;DHT22;259;53.304;9.816;2023-11-19T12:54:32;12.70;96.40
546;DHT22;259;53.304;9.816;2023-11-19T12:56:59;12.70;96.40
546;DHT22;259;53.304;9.816;2023-11-19T12:59:24;12.70;96.30
546;DHT22;259;53.304;9.816;2023-11-19T13:01:56;12.70;96.30
546;DHT22;259;53.304;9.816;2023-11-19T13:04:28;12.70;96.30
546;DHT22;259;53.304;9.816;2023-11-19T13:07:01;12.70;96.40
546;DHT22;259;53.304;9.816;2023-11-19T13:09:29;12.70;96.40
546;DHT22;259;53.304;9.816;2023-11-19T13:11:55;12.70;96.50
546;DHT22;259;53.304;9.816;2023-11-19T13:14:22;12.70;96.50
546;DHT22;259;53.304;9.816;2023-11-19T13:16:49;12.70;96.50
546;DHT22;259;53.304;9.816;2023-11-19T13:19:15;12.70;96.50
546;DHT22;259;53.304;9.816;2023-11-19T13:21:42;12.70;96.50
546;DHT22;259;53.304;9.816;2023-11-19T13:24:07;12.70;96.60
546;DHT22;259;53.304;9.816;2023-11-19T13:26:33;12.70;96.60
546;DHT22;259;53.304;9.816;2023-11-19T13:29:00;12.70;96.60
546;DHT22;259;53.304;9.816;2023-11-19T13:31:26;12.70;96.70
546;DHT22;259;53.304;9.816;2023-11-19T13:33:51;12.70;96.70
546;DHT22;259;53.304;9.816;2023-11-19T13:36:17;12.70;96.60
546;DHT22;259;53.304;9.816;2023-11-19T13:38:43;12.70;96.60
546;DHT22;259;53.304;9.816;2023-11-19T13:41:12;12.70;96.70
546;DHT22;259;53.304;9.816;2023-11-19T13:43:39;12.70;96.80
546;DHT22;259;53.304;9.816;2023-11-19T13:46:05;12.70;96.80
546;DHT22;259;53.304;9.816;2023-11-19T13:48:31;12.70;96.80
546;DHT22;259;53.304;9.816;2023-11-19T13:50:57;12.70;96.70
546;DHT22;259;53.304;9.816;2023-11-19T13:53:23;12.70;96.80
546;DHT22;259;53.304;9.816;2023-11-19T13:55:49;12.70;96.70
546;DHT22;259;53.304;9.816;2023-11-19T13:58:15;12.70;96.80
546;DHT22;259;53.304;9.816;2023-11-19T14:00:41;12.70;96.80
546;DHT22;259;53.304;9.816;2023-11-19T14:03:07;12.70;96.70
546;DHT22;259;53.304;9.816;2023-11-19T14:05:34;12.70;96.70
546;DHT22;259;53.304;9.816;2023-11-19T14:08:00;12.70;96.70
546;DHT22;259;53.304;9.816;2023-11-19T14:10:26;12.70;96.70
546;DHT22;259;53.304;9.816;2023-11-19T14:12:52;12.70;96.80
546;DHT22;259;53.304;9.816;2023-11-19T14:15:18;12.70;96.80
546;DHT22;259;53.304;9.816;2023-11-19T14:17:44;12.70;96.80
546;DHT22;259;53.304;9.816;2023-11-19T14:20:10;12.70;96.80
546;DHT22;259;53.304;9.816;2023-11-19T14:22:40;12.70;96.80
546;DHT22;259;53.304;9.816;2023-11-19T14:25:06;12.70;96.80
546;DHT22;259;53.304;9.816;2023-11-19T14:27:42;12.70;96.90
546;DHT22;259;53.304;9.816;2023-11-19T14:30:10;12.60;96.90
546;DHT22;259;53.304;9.816;2023-11-19T14:32:37;12.70;97.00
546;DHT22;259;53.304;9.816;2023-11-19T14:35:04;12.70;97.00
546;DHT22;259;53.304;9.816;2023-11-19T14:37:30;12.70;96.90
546;DHT22;259;53.304;9.816;2023-11-19T14:39:58;12.70;96.90
546;DHT22;259;53.304;9.816;2023-11-19T14:42:25;12.70;97.40
546;DHT22;259;53.304;9.816;2023-11-19T14:44:51;12.70;97.10
546;DHT22;259;53.304;9.816;2023-11-19T14:47:21;12.70;97.00
546;DHT22;259;53.304;9.816;2023-11-19T14:49:46;12.70;97.10
546;DHT22;259;53.304;9.816;2023-11-19T14:52:12;12.70;97.10
546;DHT22;259;53.304;9.816;2023-11-19T14:54:38;12.70;97.00
546;DHT22;259;53.304;9.816;2023-11-19T14:57:05;12.70;97.00
546;DHT22;259;53.304;9.816;2023-11-19T14:59:33;12.60;97.10
546;DHT22;259;53.304;9.816;2023-11-19T15:01:59;12.60;97.10
546;DHT22;259;53.304;9.816;2023-11-19T15:04:26;12.70;97.00
546;DHT22;259;53.304;9.816;2023-11-19T15:06:52;12.70;97.00
546;DHT22;259;53.304;9.816;2023-11-19T15:09:18;12.70;97.10
546;DHT22;259;53.304;9.816;2023-11-19T15:11:46;12.70;97.10
546;DHT22;259;53.304;9.816;2023-11-19T15:14:16;12.70;97.30
546;DHT22;259;53.304;9.816;2023-11-19T15:16:44;12.70;97.20
546;DHT22;259;53.304;9.816;2023-11-19T15:19:11;12.70;97.30
546;DHT22;259;53.304;9.816;2023-11-19T15:21:38;12.70;97.20
546;DHT22;259;53.304;9.816;2023-11-19T15:24:05;12.70;97.30
546;DHT22;259;53.304;9.816;2023-11-19T15:26:33;12.70;97.30
546;DHT22;259;53.304;9.816;2023-11-19T15:29:00;12.70;97.40
546;DHT22;259;53.304;9.816;2023-11-19T15:31:26;12.70;97.10
546;DHT22;259;53.304;9.816;2023-11-19T15:33:52;12.70;97.30
546;DHT22;259;53.304;9.816;2023-11-19T15:36:18;12.70;97.30
546;DHT22;259;53.304;9.816;2023-11-19T15:38:44;12.70;97.30
546;DHT22;259;53.304;9.816;2023-11-19T15:41:10;12.70;97.20
546;DHT22;259;53.304;9.816;2023-11-19T15:43:36;12.70;97.30
546;DHT22;259;53.304;9.816;2023-11-19T15:46:06;12.70;97.20
546;DHT22;259;53.304;9.816;2023-11-19T15:48:32;12.70;97.20
546;DHT22;259;53.304;9.816;2023-11-19T15:50:58;12.70;97.20
546;DHT22;259;53.304;9.816;2023-11-19T15:53:24;12.70;97.20
546;DHT22;259;53.304;9.816;2023-11-19T15:55:49;12.60;97.20
546;DHT22;259;53.304;9.816;2023-11-19T15:58:18;12.60;97.20
546;DHT22;259;53.304;9.816;2023-11-19T16:00:44;12.60;97.20
546;DHT22;259;53.304;9.816;2023-11-19T16:03:13;12.60;97.20
546;DHT22;259;53.304;9.816;2023-11-19T16:05:38;12.60;97.20
546;DHT22;259;53.304;9.816;2023-11-19T16:08:04;12.60;97.20
546;DHT22;259;53.304;9.816;2023-11-19T16:10:31;12.60;97.20
546;DHT22;259;53.304;9.816;2023-11-19T16:12:56;12.60;97.20
546;DHT22;259;53.304;9.816;2023-11-19T16:15:22;12.60;97.30
546;DHT22;259;53.304;9.816;2023-11-19T16:17:48;12.60;97.20
546;DHT22;259;53.304;9.816;2023-11-19T16:20:14;12.60;97.30
546;DHT22;259;53.304;9.816;2023-11-19T16:22:40;12.60;97.30
546;DHT22;259;53.304;9.816;2023-11-19T16:25:09;12.60;97.30
546;DHT22;259;53.304;9.816;2023-11-19T16:27:35;12.60;97.20
546;DHT22;259;53.304;9.816;2023-11-19T16:30:01;12.60;97.30
546;DHT22;259;53.304;9.816;2023-11-19T16:32:26;12.60;97.70
546;DHT22;259;53.304;9.816;2023-11-19T16:34:52;12.60;97.30
546;DHT22;259;53.304;9.816;2023-11-19T16:37:18;12.60;97.30
546;DHT22;259;53.304;9.816;2023-11-19T16:39:46;12.60;97.30
546;DHT22;259;53.304;9.816;2023-11-19T16:42:12;12.60;97.40
546;DHT22;259;53.304;9.816;2023-11-19T16:44:39;12.60;97.40
546;DHT22;259;53.304;9.816;2023-11-19T16:47:05;12.60;97.40
546;DHT22;259;53.304;9.816;2023-11-19T16:49:34;12.60;97.40
546;DHT22;259;53.304;9.816;2023-11-19T16:52:00;12.60;97.40
546;DHT22;259;53.304;9.816;2023-11-19T16:54:26;12.60;97.40
546;DHT22;259;53.304;9.816;2023-11-19T16:56:51;12.60;97.40
546;DHT22;259;53.304;9.816;2023-11-19T16:59:18;12.60;97.40
546;DHT22;259;53.304;9.816;2023-11-19T17:01:44;12.60;97.40
546;DHT22;259;53.304;9.816;2023-11-19T17:04:10;12.50;97.60
546;DHT22;259;53.304;9.816;2023-11-19T17:06:38;12.50;97.50
546;DHT22;259;53.304;9.816;2023-11-19T17:09:04;12.50;97.50